Time;durP1;ratioP1;P1;durP2;ratioP2;P2;SDS_P1;SDS_P2;PMS_P1;PMS_P2;Temp;Humidity;BMP_temperature;BMP_pressure;BME280_temperature;BME280_humidity;BME280_pressure;Samples;Min_cycle;Max_cycle;Signal;HPM_P1;HPM_P2
2024/02/25 00:01:31;;;;;;;8.43;4.87;;;;;;;1.61;100.00;96927.63;6307607;28;20207;-54
2024/02/25 00:04:35;;;;;;;7.63;3.40;;;;;;;1.58;100.00;96948.22;6299037;28;20204;-52
2024/02/25 00:07:38;;;;;;;8.77;3.27;;;;;;;1.90;100.00;96946.59;6318114;28;20217;-52
2024/02/25 00:10:40;;;;;;;8.17;4.10;;;;;;;1.49;100.00;96914.34;6298805;28;20202;-55
2024/02/25 00:13:42;;;;;;;7.93;4.03;;;;;;;1.67;100.00;96939.94;6300903;28;20589;-55
2024/02/25 00:16:44;;;;;;;6.70;2.97;;;;;;;1.75;100.00;96937.13;6296020;28;20198;-55
2024/02/25 00:19:47;;;;;;;5.63;2.70;;;;;;;1.60;100.00;96927.84;6312070;28;20198;-53
2024/02/25 00:22:50;;;;;;;3.43;2.97;;;;;;;1.25;100.00;96899.19;6308174;28;20197;-56
2024/02/25 00:25:52;;;;;;;5.77;3.10;;;;;;;1.23;100.00;96930.06;6286083;28;20218;-53
2024/02/25 00:28:55;;;;;;;5.70;2.83;;;;;;;1.42;100.00;96931.88;6304861;28;20202;-55
2024/02/25 00:31:57;;;;;;;5.97;3.03;;;;;;;1.31;100.00;96936.94;6288428;28;20279;-54
2024/02/25 00:35:00;;;;;;;5.37;2.93;;;;;;;1.69;100.00;96937.13;6297053;28;20281;-55
2024/02/25 00:38:03;;;;;;;4.40;3.23;;;;;;;1.38;100.00;96935.94;6309801;28;20191;-55
2024/02/25 00:41:05;;;;;;;3.97;2.60;;;;;;;1.59;100.00;96937.53;6311691;28;20227;-55
2024/02/25 00:44:07;;;;;;;5.60;2.67;;;;;;;1.27;100.00;96937.31;6311287;28;20225;-54
2024/02/25 00:47:10;;;;;;;4.33;2.77;;;;;;;1.48;100.00;96948.66;6309734;28;20203;-55
2024/02/25 00:50:12;;;;;;;3.83;2.37;;;;;;;1.37;100.00;96939.56;6306251;28;20235;-52
2024/02/25 00:53:16;;;;;;;5.83;2.90;;;;;;;1.20;100.00;96933.91;6309698;28;20194;-55
2024/02/25 00:56:19;;;;;;;4.50;3.50;;;;;;;1.14;100.00;96932.09;6299505;28;20195;-53
2024/02/25 00:59:21;;;;;;;9.03;5.27;;;;;;;1.15;100.00;96938.94;6309541;28;20725;-52
2024/02/25 01:02:24;;;;;;;9.23;5.50;;;;;;;1.13;100.00;96909.47;6298827;28;20271;-55
2024/02/25 01:05:26;;;;;;;6.60;4.17;;;;;;;1.13;100.00;96933.06;6309566;28;20612;-55
2024/02/25 01:08:28;;;;;;;5.93;3.30;;;;;;;1.38;100.00;96937.72;6315679;28;20218;-55
2024/02/25 01:11:31;;;;;;;5.23;2.77;;;;;;;1.07;100.00;96923.38;6313469;28;20201;-55
2024/02/25 01:14:33;;;;;;;4.73;2.90;;;;;;;0.86;100.00;96929.63;6293197;28;20190;-55
2024/02/25 01:17:35;;;;;;;4.80;3.00;;;;;;;1.13;100.00;96927.03;6305681;28;20203;-56
2024/02/25 01:20:38;;;;;;;2.70;2.27;;;;;;;1.02;100.00;96910.06;6307512;28;20274;-55
2024/02/25 01:23:40;;;;;;;5.13;2.90;;;;;;;0.99;100.00;96936.72;6293308;28;20206;-55
2024/02/25 01:26:42;;;;;;;5.70;2.60;;;;;;;0.94;100.00;96929.44;6294755;28;20649;-55
2024/02/25 01:29:44;;;;;;;5.17;2.40;;;;;;;1.20;100.00;96936.53;6309019;28;20203;-55
2024/02/25 01:32:46;;;;;;;5.40;2.30;;;;;;;0.88;100.00;96930.22;6314551;28;20214;-55
2024/02/25 01:35:49;;;;;;;6.17;2.30;;;;;;;0.83;100.00;96932.63;6312243;28;20277;-52
2024/02/25 01:38:51;;;;;;;3.87;2.40;;;;;;;0.87;100.00;96935.66;6309363;28;20191;-53
2024/02/25 01:41:57;;;;;;;3.23;1.53;;;;;;;1.11;100.00;96929.06;6280702;28;1235793;-55
2024/02/25 01:45:00;;;;;;;5.17;2.00;;;;;;;0.92;100.00;96925.38;6326054;28;20202;-55
2024/02/25 01:48:04;;;;;;;3.33;2.00;;;;;;;0.72;100.00;96928.78;6330929;28;20214;-55
2024/02/25 01:51:07;;;;;;;4.80;2.00;;;;;;;0.77;100.00;96934.22;6331865;28;20187;-55
2024/02/25 01:54:10;;;;;;;3.93;1.90;;;;;;;0.76;100.00;96921.31;6328752;28;20565;-54
2024/02/25 01:57:12;;;;;;;4.77;2.10;;;;;;;0.54;100.00;96923.25;6336635;28;20211;-55
2024/02/25 02:00:17;;;;;;;2.57;1.87;;;;;;;0.51;100.00;96916.63;6325116;28;20251;-55
2024/02/25 02:03:19;;;;;;;4.63;1.77;;;;;;;0.72;100.00;96920.09;6327351;28;20198;-55
2024/02/25 02:06:22;;;;;;;3.37;2.13;;;;;;;0.98;100.00;96924.59;6326497;28;20186;-52
2024/02/25 02:09:25;;;;;;;2.50;1.60;;;;;;;0.62;100.00;96923.09;6328452;28;20206;-52
2024/02/25 02:12:28;;;;;;;4.27;1.73;;;;;;;0.26;100.00;96928.63;6321379;28;20860;-53
2024/02/25 02:15:30;;;;;;;3.07;1.50;;;;;;;0.30;100.00;96923.81;6327343;28;20319;-54
2024/02/25 02:18:32;;;;;;;4.20;1.90;;;;;;;0.35;100.00;96927.47;6330081;28;20569;-53
2024/02/25 02:21:34;;;;;;;3.33;2.10;;;;;;;0.26;100.00;96915.53;6330742;28;20589;-56
2024/02/25 02:24:36;;;;;;;3.47;2.30;;;;;;;0.36;100.00;96915.97;6330891;28;20567;-55
2024/02/25 02:27:39;;;;;;;5.53;2.50;;;;;;;0.20;100.00;96922.34;6331015;28;20201;-55
2024/02/25 02:30:41;;;;;;;3.57;2.27;;;;;;;0.22;100.00;96917.72;6334365;28;20337;-55
2024/02/25 02:33:43;;;;;;;5.73;2.20;;;;;;;0.13;100.00;96929.34;6334219;28;20196;-54
2024/02/25 02:36:49;;;;;;;2.17;1.70;;;;;;;0.07;100.00;96927.53;6326755;28;20197;-56
2024/02/25 02:39:51;;;;;;;3.77;1.90;;;;;;;0.15;100.00;96914.28;6325608;28;20585;-53
2024/02/25 02:42:54;;;;;;;3.20;2.00;;;;;;;0.20;100.00;96917.13;6334714;28;20239;-51
2024/02/25 02:45:57;;;;;;;3.77;1.63;;;;;;;-0.08;100.00;96914.56;6330398;28;20693;-55
2024/02/25 02:48:59;;;;;;;2.77;1.50;;;;;;;-0.26;100.00;96927.31;6328770;28;20214;-55
2024/02/25 02:52:02;;;;;;;4.30;2.30;;;;;;;-0.22;100.00;96925.13;6317456;28;20266;-53
2024/02/25 02:55:04;;;;;;;5.60;1.63;;;;;;;0.04;100.00;96929.72;6309687;28;20201;-55
2024/02/25 02:58:06;;;;;;;1.93;1.30;;;;;;;-0.39;100.00;96896.66;6334545;28;20185;-54
2024/02/25 03:01:08;;;;;;;2.57;1.60;;;;;;;0.08;100.00;96929.13;6338827;28;20200;-53
2024/02/25 03:04:10;;;;;;;2.20;1.70;;;;;;;-0.33;100.00;96893.28;6327407;28;20792;-52
2024/02/25 03:07:13;;;;;;;2.00;1.67;;;;;;;-0.22;100.00;96909.44;6324964;28;20204;-52
2024/02/25 03:10:16;;;;;;;3.33;2.03;;;;;;;-0.25;100.00;96921.09;6326875;28;20197;-49
2024/02/25 03:13:18;;;;;;;5.10;1.47;;;;;;;-0.21;100.00;96932.00;6322708;28;20199;-52
2024/02/25 03:16:20;;;;;;;2.57;1.47;;;;;;;-0.48;100.00;96929.19;6332599;28;21094;-54
2024/02/25 03:19:22;;;;;;;2.13;1.33;;;;;;;0.07;100.00;96922.28;6329587;28;20185;-51
2024/02/25 03:22:25;;;;;;;1.33;1.23;;;;;;;-0.07;100.00;96921.41;6330481;28;20405;-55
2024/02/25 03:25:27;;;;;;;2.80;1.50;;;;;;;-0.37;100.00;96928.66;6327212;28;20197;-56
2024/02/25 03:28:29;;;;;;;3.20;1.10;;;;;;;-0.41;100.00;96930.03;6329135;28;20206;-53
2024/02/25 03:31:33;;;;;;;4.93;1.40;;;;;;;-0.46;100.00;96916.72;6324696;28;20193;-52
2024/02/25 03:34:35;;;;;;;4.80;1.50;;;;;;;-0.46;100.00;96911.50;6323644;28;20196;-54
2024/02/25 03:37:39;;;;;;;4.50;1.30;;;;;;;-0.16;100.00;96917.31;6323934;28;20205;-55
2024/02/25 03:40:41;;;;;;;1.30;1.20;;;;;;;-0.23;100.00;96907.81;6334162;28;20200;-55
2024/02/25 03:43:44;;;;;;;3.90;1.20;;;;;;;-0.46;100.00;96908.88;6326434;28;20704;-54
2024/02/25 03:46:46;;;;;;;6.53;1.67;;;;;;;-0.60;100.00;96918.44;6331802;28;20209;-55
2024/02/25 03:49:48;;;;;;;2.43;1.30;;;;;;;-0.63;100.00;96913.59;6328077;28;20282;-54
2024/02/25 03:52:51;;;;;;;3.27;1.47;;;;;;;-0.32;100.00;96920.25;6333714;28;20723;-53
2024/02/25 03:55:53;;;;;;;2.27;1.40;;;;;;;-0.67;100.00;96911.56;6332329;28;20534;-52
2024/02/25 03:58:55;;;;;;;3.10;2.00;;;;;;;-0.75;100.00;96919.53;6328777;28;20186;-55
2024/02/25 04:01:57;;;;;;;5.33;2.13;;;;;;;-0.68;100.00;96926.44;6335766;28;20197;-52
2024/02/25 04:04:59;;;;;;;3.20;1.47;;;;;;;-0.36;100.00;96921.63;6322012;28;20649;-55
2024/02/25 04:08:02;;;;;;;3.50;1.50;;;;;;;-0.59;100.00;96917.47;6338845;28;20293;-54
2024/02/25 04:11:04;;;;;;;2.20;1.63;;;;;;;-0.68;100.00;96930.88;6333733;28;20205;-56
2024/02/25 04:14:06;;;;;;;2.47;1.13;;;;;;;-0.76;100.00;96934.41;6327653;28;20201;-56
2024/02/25 04:17:08;;;;;;;5.87;1.40;;;;;;;-0.79;100.00;96937.38;6327537;28;20190;-56
2024/02/25 04:20:10;;;;;;;1.60;1.00;;;;;;;-0.79;100.00;96934.78;6328036;28;20198;-56
2024/02/25 04:23:14;;;;;;;2.00;0.80;;;;;;;-0.47;100.00;96943.09;6333833;28;20193;-55
2024/02/25 04:26:16;;;;;;;1.67;0.93;;;;;;;-0.67;100.00;96951.59;6337246;28;20189;-52
2024/02/25 04:29:19;;;;;;;3.20;0.90;;;;;;;-0.82;100.00;96951.66;6342941;28;20213;-55
2024/02/25 04:32:21;;;;;;;3.20;1.23;;;;;;;-0.85;100.00;96949.41;6343414;28;20205;-52
2024/02/25 04:35:23;;;;;;;2.60;1.27;;;;;;;-0.97;100.00;96947.50;6325326;28;20197;-53
2024/02/25 04:38:26;;;;;;;4.90;1.97;;;;;;;-1.02;100.00;96962.94;6341668;28;20647;-56
2024/02/25 04:41:28;;;;;;;1.50;1.00;;;;;;;-0.63;100.00;96963.28;6324826;28;20226;-54
2024/02/25 04:44:30;;;;;;;2.40;1.47;;;;;;;-1.00;100.00;96961.75;6332776;28;20220;-55
2024/02/25 04:47:32;;;;;;;6.40;1.70;;;;;;;-0.89;100.00;96965.66;6333923;28;20227;-53
2024/02/25 04:50:36;;;;;;;2.93;1.83;;;;;;;-1.09;100.00;96965.47;6323403;28;20276;-56
2024/02/25 04:53:39;;;;;;;3.83;1.40;;;;;;;-1.20;100.00;96971.19;6330474;28;20230;-55
2024/02/25 04:56:44;;;;;;;5.33;1.40;;;;;;;-1.05;100.00;96969.34;6325552;28;20202;-54
2024/02/25 04:59:46;;;;;;;2.50;1.30;;;;;;;-0.82;100.00;96958.69;6339295;28;20193;-53
2024/02/25 05:02:49;;;;;;;0.80;0.70;;;;;;;-1.10;100.00;96974.31;6333426;28;20201;-54
2024/02/25 05:05:51;;;;;;;2.63;1.00;;;;;;;-1.16;100.00;96978.47;6322996;28;20197;-55
2024/02/25 05:08:53;;;;;;;3.40;1.60;;;;;;;-1.20;100.00;96979.84;6326420;28;20209;-52
2024/02/25 05:11:55;;;;;;;5.60;1.30;;;;;;;-1.23;100.00;96968.94;6330899;28;20566;-55
2024/02/25 05:14:57;;;;;;;1.83;1.40;;;;;;;-1.32;100.00;96974.28;6330292;28;20265;-55
2024/02/25 05:18:03;;;;;;;1.87;1.10;;;;;;;-1.12;100.00;96966.66;6331552;28;20185;-54
2024/02/25 05:21:05;;;;;;;3.00;1.27;;;;;;;-1.32;100.00;96971.69;6335665;28;20599;-55
2024/02/25 05:24:08;;;;;;;1.67;1.00;;;;;;;-1.36;100.00;96983.47;6334687;28;20276;-55
2024/02/25 05:27:11;;;;;;;0.87;0.87;;;;;;;-1.36;100.00;96982.69;6339239;28;20189;-55
2024/02/25 05:30:13;;;;;;;1.90;1.67;;;;;;;-1.54;100.00;96954.31;6337626;28;20197;-54
2024/02/25 05:33:15;;;;;;;1.30;1.10;;;;;;;-0.99;100.00;96978.22;6335464;28;20199;-56
2024/02/25 05:36:22;;;;;;;2.53;0.80;;;;;;;-1.16;100.00;96981.09;6332743;28;20569;-54
2024/02/25 05:39:24;;;;;;;4.07;1.10;;;;;;;-1.29;100.00;96996.59;6326071;28;20647;-52
2024/02/25 05:42:27;;;;;;;2.07;0.90;;;;;;;-1.19;100.00;96997.13;6329221;28;20770;-52
2024/02/25 05:45:29;;;;;;;1.00;0.80;;;;;;;-1.33;100.00;96997.97;6330879;28;20193;-50
2024/02/25 05:48:32;;;;;;;1.63;0.80;;;;;;;-1.12;100.00;96999.84;6333297;28;20224;-54
2024/02/25 05:51:35;;;;;;;2.93;1.00;;;;;;;-1.35;100.00;97005.19;6318661;28;20322;-54
2024/02/25 05:54:37;;;;;;;2.73;1.00;;;;;;;-1.37;100.00;97002.78;6329693;28;20193;-53
2024/02/25 05:57:40;;;;;;;1.93;1.13;;;;;;;-1.38;100.00;97005.53;6333302;28;20741;-55
2024/02/25 06:00:42;;;;;;;2.23;1.00;;;;;;;-1.03;100.00;97006.56;6328877;28;20691;-52
2024/02/25 06:03:45;;;;;;;4.33;1.00;;;;;;;-1.26;100.00;97008.50;6330310;28;20189;-55
2024/02/25 06:06:52;;;;;;;1.07;0.90;;;;;;;-1.40;100.00;97007.53;6339749;28;20691;-55
2024/02/25 06:09:57;;;;;;;1.00;0.90;;;;;;;-1.43;100.00;97019.19;6318572;28;20241;-55
2024/02/25 06:12:59;;;;;;;0.70;0.70;;;;;;;-1.45;100.00;97010.69;6326362;28;20202;-55
2024/02/25 06:16:01;;;;;;;6.10;1.57;;;;;;;-1.37;100.00;97008.00;6331632;28;20193;-52
2024/02/25 06:19:04;;;;;;;2.13;1.00;;;;;;;-1.00;100.00;96992.31;6329253;28;20188;-55
2024/02/25 06:22:07;;;;;;;2.10;0.83;;;;;;;-0.91;100.00;96997.22;6326292;28;20265;-52
2024/02/25 06:25:09;;;;;;;2.73;1.00;;;;;;;-0.79;100.00;97000.97;6329110;28;20650;-53
2024/02/25 06:28:12;;;;;;;11.53;5.70;;;;;;;-1.06;100.00;96988.63;6338704;28;20593;-55
2024/02/25 06:31:14;;;;;;;6.80;4.77;;;;;;;-1.16;100.00;96988.94;6339872;28;20197;-54
2024/02/25 06:34:16;;;;;;;8.03;4.10;;;;;;;-1.16;100.00;96999.38;6340934;28;20681;-52
2024/02/25 06:37:18;;;;;;;3.60;2.13;;;;;;;-0.98;100.00;96993.75;6336113;28;20664;-55
2024/02/25 06:40:23;;;;;;;2.93;1.83;;;;;;;-0.64;100.00;96987.00;6325821;28;20178;-52
2024/02/25 06:43:25;;;;;;;4.43;1.70;;;;;;;-0.93;100.00;96988.78;6307731;28;20191;-54
2024/02/25 06:46:27;;;;;;;1.97;1.60;;;;;;;-0.96;100.00;96988.31;6304753;28;20201;-54
2024/02/25 06:49:30;;;;;;;3.40;1.40;;;;;;;-1.04;100.00;96976.16;6306023;28;20695;-53
2024/02/25 06:52:32;;;;;;;2.73;1.07;;;;;;;-0.90;100.00;96983.16;6297214;28;20201;-55
2024/02/25 06:55:34;;;;;;;2.90;1.30;;;;;;;-0.88;100.00;96983.78;6302996;28;20687;-53
2024/02/25 06:58:36;;;;;;;2.20;1.20;;;;;;;-0.86;100.00;96967.91;6315587;28;20648;-56
2024/02/25 07:01:38;;;;;;;2.60;1.30;;;;;;;-0.74;100.00;96986.50;6298424;28;20272;-54
2024/02/25 07:04:41;;;;;;;3.10;1.50;;;;;;;-0.69;100.00;96989.38;6313630;28;20190;-53
2024/02/25 07:07:43;;;;;;;3.63;1.57;;;;;;;-0.64;100.00;96979.16;6292335;28;20531;-56
2024/02/25 07:10:46;;;;;;;4.10;1.07;;;;;;;-0.27;100.00;96984.09;6298677;28;20652;-53
2024/02/25 07:13:48;;;;;;;2.33;1.20;;;;;;;-0.30;100.00;96963.53;6307018;28;20202;-56
2024/02/25 07:16:50;;;;;;;3.67;1.00;;;;;;;-0.30;100.00;96996.75;6269202;28;20665;-56
2024/02/25 07:19:53;;;;;;;3.13;1.00;;;;;;;0.07;100.00;97000.03;6306163;28;20186;-56
2024/02/25 07:22:58;;;;;;;4.60;0.90;;;;;;;0.43;100.00;97000.63;6300967;28;20753;-55
2024/02/25 07:26:00;;;;;;;2.07;1.00;;;;;;;0.44;100.00;96999.66;6298412;28;20665;-55
2024/02/25 07:29:03;;;;;;;2.17;0.80;;;;;;;0.38;100.00;97004.84;6300733;28;20210;-52
2024/02/25 07:32:05;;;;;;;1.93;0.80;;;;;;;0.18;100.00;97009.97;6293869;28;20175;-56
2024/02/25 07:35:08;;;;;;;2.07;0.87;;;;;;;0.15;100.00;97011.19;6297247;28;20661;-55
2024/02/25 07:38:10;;;;;;;0.97;0.83;;;;;;;0.31;100.00;97031.00;6301547;28;20198;-56
2024/02/25 07:41:13;;;;;;;2.87;0.93;;;;;;;0.29;100.00;97027.75;6304229;28;20577;-54
2024/02/25 07:44:15;;;;;;;2.07;1.50;;;;;;;0.36;100.00;97023.38;6301818;28;20324;-52
2024/02/25 07:47:18;;;;;;;4.97;1.83;;;;;;;0.46;100.00;97017.78;6298035;28;20198;-57
2024/02/25 07:50:20;;;;;;;3.97;1.10;;;;;;;0.75;100.00;97030.63;6307259;28;20194;-55
2024/02/25 07:53:22;;;;;;;2.60;1.23;;;;;;;1.07;100.00;97017.81;6295880;28;20202;-57
2024/02/25 07:56:27;;;;;;;1.53;0.93;;;;;;;1.18;100.00;97016.41;6303533;28;21121;-56
2024/02/25 07:59:29;;;;;;;2.50;0.80;;;;;;;1.36;100.00;97016.66;6302963;28;20613;-56
2024/02/25 08:02:35;;;;;;;1.90;0.80;;;;;;;1.08;100.00;96993.19;6303536;28;20194;-52
2024/02/25 08:05:38;;;;;;;2.20;0.80;;;;;;;1.62;100.00;96988.81;6305447;28;20202;-55
2024/02/25 08:08:40;;;;;;;1.83;0.57;;;;;;;1.79;100.00;96992.66;6308429;28;20198;-57
2024/02/25 08:11:43;;;;;;;1.33;0.60;;;;;;;1.91;100.00;97000.72;6306964;28;20202;-56
2024/02/25 08:14:45;;;;;;;0.77;0.60;;;;;;;1.93;100.00;96991.66;6308455;28;20184;-55
2024/02/25 08:17:47;;;;;;;3.53;0.70;;;;;;;1.94;100.00;96985.38;6306190;28;20190;-57
2024/02/25 08:20:50;;;;;;;4.63;1.10;;;;;;;1.91;100.00;96987.59;6308689;28;20197;-56
2024/02/25 08:23:52;;;;;;;1.00;0.63;;;;;;;2.00;100.00;96981.13;6304261;28;20205;-57
2024/02/25 08:26:55;;;;;;;1.63;0.83;;;;;;;2.27;100.00;96987.16;6300266;28;20187;-53
2024/02/25 08:29:57;;;;;;;1.73;1.23;;;;;;;2.49;100.00;96991.09;6316023;28;20212;-56
2024/02/25 08:32:59;;;;;;;2.30;1.87;;;;;;;2.72;100.00;96990.63;6308003;28;20193;-55
2024/02/25 08:36:02;;;;;;;2.93;1.87;;;;;;;2.81;100.00;96980.69;6301844;28;21724;-51
2024/02/25 08:39:05;;;;;;;6.37;2.53;;;;;;;2.96;100.00;96975.16;6305123;28;20182;-56
2024/02/25 08:42:07;;;;;;;4.77;2.80;;;;;;;3.15;100.00;96979.47;6306890;28;20702;-57
2024/02/25 08:45:09;;;;;;;4.07;2.70;;;;;;;3.32;100.00;96975.31;6302945;28;20269;-55
2024/02/25 08:48:12;;;;;;;3.93;3.00;;;;;;;3.45;100.00;96969.16;6306476;28;20210;-52
2024/02/25 08:51:14;;;;;;;5.13;3.13;;;;;;;3.54;100.00;96962.59;6299755;28;20220;-54
2024/02/25 08:54:16;;;;;;;3.77;2.57;;;;;;;3.75;100.00;96971.97;6296628;28;20187;-56
2024/02/25 08:57:20;;;;;;;4.17;2.23;;;;;;;4.03;100.00;96982.03;6303267;28;20195;-56
2024/02/25 09:00:23;;;;;;;5.23;2.23;;;;;;;4.19;100.00;96985.97;6304682;28;20268;-56
2024/02/25 09:03:25;;;;;;;5.83;2.47;;;;;;;4.42;100.00;96984.50;6297654;28;20201;-56
2024/02/25 09:06:43;;;;;;;4.57;2.50;;;;;;;4.37;100.00;96953.50;6302572;28;20680;-56
2024/02/25 09:09:45;;;;;;;4.53;2.30;;;;;;;4.81;100.00;96984.03;6287622;28;20231;-54
2024/02/25 09:12:48;;;;;;;9.90;2.77;;;;;;;4.98;100.00;96988.72;6303506;28;20195;-58
2024/02/25 09:15:51;;;;;;;4.03;2.70;;;;;;;5.03;100.00;96992.31;6286822;28;20609;-54
2024/02/25 09:18:53;;;;;;;4.03;2.63;;;;;;;5.13;100.00;96981.22;6304599;28;20203;-57
2024/02/25 09:21:56;;;;;;;3.80;2.80;;;;;;;5.23;100.00;96976.19;6308314;28;20199;-53
2024/02/25 09:24:58;;;;;;;4.17;2.60;;;;;;;5.40;100.00;96976.34;6297322;28;20199;-57
2024/02/25 09:28:04;;;;;;;3.80;2.60;;;;;;;5.43;100.00;96974.06;6286213;28;20673;-57
2024/02/25 09:31:08;;;;;;;4.67;2.53;;;;;;;5.42;100.00;96966.38;6304090;28;20345;-57
2024/02/25 09:34:11;;;;;;;5.13;2.40;;;;;;;5.51;100.00;96961.53;6303259;28;20690;-55
2024/02/25 09:37:14;;;;;;;4.87;2.47;;;;;;;5.65;99.46;96958.47;6300161;28;20234;-55
2024/02/25 09:40:16;;;;;;;5.67;2.80;;;;;;;5.78;100.00;96957.47;6305352;28;20249;-56
2024/02/25 09:43:18;;;;;;;3.47;2.63;;;;;;;5.91;99.76;96952.00;6302448;28;20237;-57
2024/02/25 09:46:23;;;;;;;4.17;3.00;;;;;;;6.12;100.00;96957.72;6301993;28;20693;-57
2024/02/25 09:49:27;;;;;;;6.53;3.40;;;;;;;6.25;98.67;96951.38;6309491;28;20301;-56
2024/02/25 09:52:31;;;;;;;5.33;3.40;;;;;;;6.30;99.74;96949.63;6313153;28;20197;-55
2024/02/25 09:55:34;;;;;;;7.53;3.63;;;;;;;6.43;98.30;96948.59;6323979;28;20270;-58
2024/02/25 09:58:36;;;;;;;5.77;3.27;;;;;;;6.54;97.39;96950.41;6329483;28;20558;-58
2024/02/25 10:01:38;;;;;;;7.60;4.13;;;;;;;6.60;97.45;96948.66;6331317;28;20203;-55
2024/02/25 10:04:43;;;;;;;4.90;3.50;;;;;;;6.68;95.58;96948.31;6328129;28;20196;-53
2024/02/25 10:07:59;;;;;;;5.97;4.00;;;;;;;6.81;92.04;96944.59;6329220;28;20574;-58
2024/02/25 10:11:02;;;;;;;4.40;3.80;;;;;;;6.83;94.38;96939.84;6327786;28;20731;-55
2024/02/25 10:14:05;;;;;;;4.90;3.77;;;;;;;6.90;95.85;96929.94;6293874;28;20529;-57
2024/02/25 10:17:09;;;;;;;4.63;4.17;;;;;;;6.86;93.22;96923.50;6328668;28;20285;-57
2024/02/25 10:20:12;;;;;;;6.47;4.50;;;;;;;6.96;93.99;96932.44;6333113;28;20188;-57
2024/02/25 10:23:15;;;;;;;6.97;4.53;;;;;;;7.08;94.84;96923.63;6315862;28;20209;-55
2024/02/25 10:26:23;;;;;;;6.53;3.83;;;;;;;7.20;92.86;96933.13;6330894;28;20636;-58
2024/02/25 10:29:26;;;;;;;7.97;3.80;;;;;;;7.27;90.99;96919.72;6336231;28;20212;-54
2024/02/25 10:32:40;;;;;;;7.30;4.20;;;;;;;7.38;91.70;96918.84;6327055;28;20203;-55
2024/02/25 10:35:44;;;;;;;5.20;3.60;;;;;;;7.50;92.92;96916.94;6330369;28;20470;-57
2024/02/25 10:38:46;;;;;;;5.40;3.93;;;;;;;7.52;93.34;96894.69;6336058;28;20193;-56
2024/02/25 10:41:49;;;;;;;8.07;4.57;;;;;;;7.66;88.48;96915.34;6332698;28;20341;-56
2024/02/25 10:44:54;;;;;;;6.80;5.23;;;;;;;7.69;86.34;96906.13;6330559;28;20327;-54
2024/02/25 10:47:57;;;;;;;6.83;5.00;;;;;;;7.40;87.02;96910.69;6326124;28;20569;-57
2024/02/25 10:51:00;;;;;;;9.83;5.67;;;;;;;7.08;88.12;96905.91;6335297;28;20213;-57
2024/02/25 10:54:05;;;;;;;7.27;5.57;;;;;;;6.81;89.00;96886.34;6332618;28;20595;-57
2024/02/25 10:57:12;;;;;;;9.17;6.20;;;;;;;7.03;89.57;96911.09;6331291;28;20567;-56
2024/02/25 11:00:14;;;;;;;7.67;5.77;;;;;;;7.15;89.79;96906.56;6335587;28;20193;-56
2024/02/25 11:03:17;;;;;;;5.83;5.20;;;;;;;7.30;89.89;96906.03;6329186;28;20204;-53
2024/02/25 11:06:41;;;;;;;8.70;6.07;;;;;;;7.37;89.15;96909.31;6308977;28;20846;-57
2024/02/25 11:09:44;;;;;;;9.00;5.63;;;;;;;7.43;87.10;96899.59;6325469;28;20215;-56
2024/02/25 11:12:51;;;;;;;6.13;4.27;;;;;;;7.46;85.95;96899.91;6328256;28;20193;-53
2024/02/25 11:15:55;;;;;;;6.27;4.77;;;;;;;7.62;85.38;96895.66;6328518;28;20189;-53
2024/02/25 11:19:00;;;;;;;6.37;4.37;;;;;;;7.79;84.85;96886.91;6332758;28;20209;-56
2024/02/25 11:22:03;;;;;;;6.80;4.70;;;;;;;7.87;83.94;96887.28;6334313;28;20193;-55
2024/02/25 11:25:06;;;;;;;7.73;5.20;;;;;;;7.73;85.55;96883.34;6321217;28;20194;-55
2024/02/25 11:28:13;;;;;;;6.73;4.83;;;;;;;7.80;85.54;96888.50;6335957;28;20544;-56
2024/02/25 11:31:47;;;;;;;7.20;4.93;;;;;;;7.78;86.77;96882.63;6331462;28;20220;-52
2024/02/25 11:34:58;;;;;;;10.37;6.20;;;;;;;7.74;87.76;96875.16;6329364;28;20762;-56
2024/02/25 11:38:03;;;;;;;10.80;6.47;;;;;;;7.85;88.35;96870.81;6335989;28;20563;-54
2024/02/25 11:41:05;;;;;;;8.03;5.67;;;;;;;7.80;89.08;96868.09;6330533;28;20230;-56
2024/02/25 11:44:07;;;;;;;9.70;6.10;;;;;;;7.75;88.80;96855.56;6304388;28;20867;-54
2024/02/25 11:47:09;;;;;;;9.60;7.10;;;;;;;7.87;90.13;96863.41;6313237;28;20192;-54
2024/02/25 11:50:13;;;;;;;8.87;5.97;;;;;;;7.80;90.78;96846.09;6314499;28;20277;-52
2024/02/25 11:53:15;;;;;;;11.13;6.70;;;;;;;8.10;88.91;96856.28;6317430;28;20252;-54
2024/02/25 11:56:17;;;;;;;9.30;6.70;;;;;;;7.98;90.56;96840.50;6303011;28;20186;-56
2024/02/25 11:59:20;;;;;;;7.77;6.57;;;;;;;8.08;91.32;96850.41;6303006;28;20186;-56
2024/02/25 12:02:26;;;;;;;11.10;6.80;;;;;;;8.14;91.02;96836.19;6312357;28;20277;-57
2024/02/25 12:05:31;;;;;;;9.77;6.67;;;;;;;8.35;91.74;96831.91;6307713;28;20192;-54
2024/02/25 12:08:33;;;;;;;9.33;6.93;;;;;;;8.56;91.21;96806.41;6313384;28;20970;-55
2024/02/25 12:11:37;;;;;;;7.03;6.00;;;;;;;8.95;88.38;96813.16;6311344;28;20202;-54
2024/02/25 12:14:40;;;;;;;7.13;4.63;;;;;;;9.21;85.68;96808.06;6311146;28;20197;-56
2024/02/25 12:17:43;;;;;;;6.80;4.30;;;;;;;9.57;80.52;96801.16;6306980;28;20728;-52
2024/02/25 12:20:45;;;;;;;5.03;3.60;;;;;;;9.65;78.04;96778.56;6307562;28;20268;-57
2024/02/25 12:23:47;;;;;;;6.70;4.30;;;;;;;9.88;76.26;96801.31;6308994;28;20194;-57
2024/02/25 12:26:52;;;;;;;6.67;4.03;;;;;;;9.85;79.79;96796.50;6303183;28;20215;-56
2024/02/25 12:29:58;;;;;;;6.13;3.67;;;;;;;10.02;78.79;96791.81;6306142;28;20611;-57
2024/02/25 12:33:06;;;;;;;5.30;3.70;;;;;;;10.27;77.06;96791.13;6305012;28;20327;-55
2024/02/25 12:36:09;;;;;;;5.50;3.73;;;;;;;10.65;71.07;96781.91;6290080;28;20666;-51
2024/02/25 12:39:14;;;;;;;5.23;3.60;;;;;;;10.87;68.70;96783.53;6311943;28;20209;-54
2024/02/25 12:42:17;;;;;;;6.60;4.13;;;;;;;10.96;71.12;96777.41;6293048;28;20230;-54
2024/02/25 12:45:22;;;;;;;4.77;3.37;;;;;;;11.06;72.55;96773.94;6274246;28;20198;-56
2024/02/25 12:48:24;;;;;;;4.23;3.23;;;;;;;11.22;68.32;96762.19;6290433;28;20186;-55
2024/02/25 12:51:26;;;;;;;4.33;3.17;;;;;;;11.14;70.29;96768.09;6284858;28;20778;-56
2024/02/25 12:54:29;;;;;;;4.23;3.33;;;;;;;11.21;68.40;96759.81;6284832;28;20222;-55
2024/02/25 12:57:31;;;;;;;5.50;3.13;;;;;;;11.33;70.73;96763.00;6284672;28;20198;-57
2024/02/25 13:00:34;;;;;;;4.43;3.80;;;;;;;11.38;70.04;96760.34;6282227;28;20202;-54
2024/02/25 13:03:37;;;;;;;7.23;4.70;;;;;;;11.20;72.29;96764.34;6282377;28;20566;-57
2024/02/25 13:06:40;;;;;;;5.80;4.43;;;;;;;11.26;73.55;96741.94;6288337;28;20195;-54
2024/02/25 13:09:42;;;;;;;5.17;3.20;;;;;;;11.34;72.12;96727.28;6283281;28;20582;-53
2024/02/25 13:12:47;;;;;;;5.53;2.40;;;;;;;11.69;65.33;96738.91;6280957;28;20191;-56
2024/02/25 13:15:49;;;;;;;3.20;2.17;;;;;;;11.80;66.14;96735.94;6282301;28;20858;-53
2024/02/25 13:18:51;;;;;;;4.40;2.00;;;;;;;11.95;62.64;96726.31;6284996;28;20587;-56
2024/02/25 13:21:53;;;;;;;3.57;1.63;;;;;;;12.17;56.97;96725.91;6277410;28;20329;-53
2024/02/25 13:24:56;;;;;;;2.03;1.67;;;;;;;12.27;57.29;96723.22;6287502;28;20232;-54
2024/02/25 13:28:02;;;;;;;2.63;1.40;;;;;;;12.38;53.68;96724.75;6280430;28;20235;-55
2024/02/25 13:31:04;;;;;;;3.40;1.73;;;;;;;12.43;54.85;96719.38;6277677;28;20981;-56
2024/02/25 13:34:07;;;;;;;2.37;1.70;;;;;;;12.37;56.31;96723.16;6283012;28;20191;-53
2024/02/25 13:37:09;;;;;;;2.30;1.30;;;;;;;12.39;54.67;96705.78;6280210;28;20190;-54
2024/02/25 13:40:11;;;;;;;3.00;1.20;;;;;;;12.28;54.44;96706.13;6278298;28;20250;-56
2024/02/25 13:43:14;;;;;;;4.03;1.70;;;;;;;12.01;53.99;96669.94;6277874;28;20226;-53
2024/02/25 13:46:16;;;;;;;2.33;1.53;;;;;;;12.09;56.92;96696.06;6277203;28;20225;-55
2024/02/25 13:49:18;;;;;;;2.23;1.50;;;;;;;12.01;54.14;96693.97;6288212;28;20663;-54
2024/02/25 13:52:21;;;;;;;2.23;1.60;;;;;;;11.92;55.73;96705.50;6276664;28;20204;-55
2024/02/25 13:55:25;;;;;;;1.37;1.03;;;;;;;11.72;56.12;96695.66;6281513;28;20272;-50
2024/02/25 13:58:27;;;;;;;3.00;1.10;;;;;;;11.82;54.11;96696.47;6275130;28;22153;-54
2024/02/25 14:01:30;;;;;;;2.50;1.40;;;;;;;11.76;53.45;96699.38;6279919;28;20232;-51
2024/02/25 14:04:33;;;;;;;0.90;0.70;;;;;;;11.83;50.47;96684.72;6278697;28;20199;-54
2024/02/25 14:07:35;;;;;;;1.30;0.60;;;;;;;11.75;53.83;96685.25;6279542;28;20199;-53
2024/02/25 14:10:40;;;;;;;2.33;0.80;;;;;;;11.68;52.92;96694.66;6281490;28;20219;-55
2024/02/25 14:13:42;;;;;;;1.30;0.80;;;;;;;11.68;52.86;96690.09;6278322;28;20195;-54
2024/02/25 14:16:45;;;;;;;2.97;0.80;;;;;;;11.55;51.38;96690.66;6285382;28;20216;-50
2024/02/25 14:19:47;;;;;;;1.83;0.77;;;;;;;11.47;52.48;96696.56;6275740;28;20678;-55